createdAt,value
2022-10-19T00:05:38.178Z,11.09
2022-10-19T00:20:34.181Z,11.06
2022-10-19T00:35:30.336Z,11.1
2022-10-19T00:50:27.011Z,11.18
2022-10-19T01:05:22.639Z,11.03
2022-10-19T01:20:18.639Z,11.04
2022-10-19T01:35:15.037Z,10.85
2022-10-19T01:50:10.919Z,11.03
2022-10-19T02:05:06.882Z,10.74
2022-10-19T02:20:03.442Z,11.14
2022-10-19T02:35:00.240Z,10.71
2022-10-19T02:49:56.625Z,10.53
2022-10-19T03:04:52.636Z,10.53
2022-10-19T03:19:49.340Z,10.5
2022-10-19T03:34:45.559Z,10.53
2022-10-19T03:49:41.272Z,10.52
2022-10-19T04:04:37.750Z,10.26
2022-10-19T04:19:33.905Z,10.3
2022-10-19T04:34:30.498Z,10.55
2022-10-19T04:49:26.665Z,10.38
2022-10-19T05:04:22.551Z,10.25
2022-10-19T05:19:19.143Z,10.18
2022-10-19T05:34:15.656Z,10.11
2022-10-19T05:49:11.644Z,10.34
2022-10-19T06:04:07.613Z,10.38
2022-10-19T06:19:03.814Z,10.46
2022-10-19T06:33:59.983Z,10.52
2022-10-19T06:48:56.268Z,10.58
2022-10-19T07:03:52.855Z,10.66
2022-10-19T07:18:49.563Z,10.99
2022-10-19T07:33:45.970Z,10.95
2022-10-19T07:48:42.722Z,11.24
2022-10-19T08:18:35.544Z,11.21
2022-10-19T08:33:31.621Z,11.58
2022-10-19T08:48:27.976Z,11.93
2022-10-19T09:03:31.819Z,12.46
2022-10-19T09:18:20.911Z,15.15
2022-10-19T09:33:17.271Z,13.41
2022-10-19T09:48:13.991Z,13.57
2022-10-19T10:03:10.337Z,13.82
2022-10-19T10:18:06.488Z,14.68
2022-10-19T10:33:08.021Z,14.92
2022-10-19T10:48:00.400Z,15.39
2022-10-19T11:02:57.183Z,15.33
2022-10-19T11:17:54.051Z,17.1
2022-10-19T11:32:49.771Z,16.91
2022-10-19T11:47:45.937Z,17.05
2022-10-19T12:02:42.321Z,16.82
2022-10-19T12:17:39.136Z,17.07
2022-10-19T12:32:35.425Z,16.62
2022-10-19T13:02:27.698Z,16.97
2022-10-19T13:17:24.234Z,16.72
2022-10-19T13:32:20.330Z,16.86
2022-10-19T13:47:16.758Z,16.85
2022-10-19T14:02:13.073Z,16.75
2022-10-19T14:17:09.283Z,16.71
2022-10-19T14:32:05.556Z,16.41
2022-10-19T14:47:01.856Z,16.36
2022-10-19T15:01:58.268Z,16.29
2022-10-19T15:16:54.530Z,16.51
2022-10-19T15:31:51.037Z,16.08
2022-10-19T15:46:47.100Z,15.81
2022-10-19T16:01:42.765Z,14.9
2022-10-19T16:16:38.156Z,14.67
2022-10-19T16:31:34.072Z,14.49
2022-10-19T16:46:29.628Z,14.43
2022-10-19T17:01:25.354Z,14.43
2022-10-19T17:16:21.581Z,14.41
2022-10-19T17:31:17.377Z,14.22
2022-10-19T17:46:12.735Z,14.16
2022-10-19T18:01:09.118Z,14.03
2022-10-19T18:16:05.018Z,13.76
2022-10-19T18:31:01.201Z,13.69
2022-10-19T18:45:57.181Z,13.49
2022-10-19T19:00:53.526Z,13.35
2022-10-19T19:15:49.573Z,13.02
2022-10-19T19:30:45.465Z,12.81
2022-10-19T19:45:41.486Z,12.62
2022-10-19T20:00:38.047Z,12.42
2022-10-19T20:15:33.997Z,12.48
2022-10-19T20:30:29.303Z,12.15
2022-10-19T20:45:24.962Z,12.09
2022-10-19T21:00:21.010Z,12.02
2022-10-19T21:15:17.344Z,11.9
2022-10-19T21:30:13.581Z,11.92
2022-10-19T21:45:29.022Z,11.54
2022-10-19T22:00:05.176Z,11.88
2022-10-19T22:15:01.405Z,12.27
2022-10-19T22:29:57.885Z,12.44
2022-10-19T22:44:53.999Z,12.75
2022-10-19T22:59:50.104Z,12.97
2022-10-19T23:14:46.320Z,13.03
2022-10-19T23:29:42.725Z,13.12
2022-10-19T23:44:39.225Z,13.08
2022-10-19T23:59:35.871Z,12.99
